Decoded Metar for ULAA (ARHANGELSK in RUSSIA) (IATA:N/A) | Meteo·Mobile Aviation Weather
aviador You're here:

ULAA Decoded Metar

ARHANGELSK in RUSSIA
Report Time2019-02-18 10:30:00
UTC Time2019-02-18 10:44:24
Flight Rules vfr VFR
Wind320° at 8 kt
W.Decomp.*RWY 26: 5.7 kt HW 5.7 kt RCW
W.Rank320° ranks 4
Current wind is above 320° avg. (7.6)
Visibility9999 m
Phenomena:N/A
Clouds:Few 020 Hf
Expected CloudBase > 1,200 ft AGL from Temp-Dew spread
CeilingNone
Temp-7°C (ISA -22)
Dew Point-10°C (79% RH)
AAT-12.9°C
QNH1014 hPa
Density Alt-2,651 ft
Elevation62 ft
Report Wrong Elevation
Raw Report
ULAA 181030Z 32004MPS 290V360 9999 FEW020 M07/M10 Q1014 R26/450242
NOSIG RMK QFE759/1012=

Extra information for ULAA:More info

Metar Taf Metar & Taf Last 4 Metars F.Rules Stats Wind Profile Meteogram Temp Stats Airport Information Weather charts Add Link Nearby VenuesMetar ALERT Operation Metar Decoded Social comments